sensor_id;sensor_type;location;lat;lon;timestamp;pressure;altitude;pressure_sealevel;temperature;humidity
69318;BME280;56457;52.190;4.440;2022-08-25T00:00:35;101815.63;;;23.37;100.00
69318;BME280;56457;52.190;4.440;2022-08-25T00:01:39;101814.81;;;23.35;100.00
69318;BME280;56457;52.190;4.440;2022-08-25T00:02:39;101820.31;;;23.32;100.00
69318;BME280;56457;52.190;4.440;2022-08-25T00:03:41;101813.16;;;23.32;100.00
69318;BME280;56457;52.190;4.440;2022-08-25T00:04:42;101814.88;;;23.33;100.00
69318;BME280;56457;52.190;4.440;2022-08-25T00:05:42;101810.69;;;23.28;100.00
69318;BME280;56457;52.190;4.440;2022-08-25T00:06:44;101809.81;;;23.27;100.00
69318;BME280;56457;52.190;4.440;2022-08-25T00:07:45;101811.50;;;23.30;100.00
69318;BME280;56457;52.190;4.440;2022-08-25T00:08:46;101807.97;;;23.29;100.00
69318;BME280;56457;52.190;4.440;2022-08-25T00:09:46;101807.97;;;23.29;100.00
69318;BME280;56457;52.190;4.440;2022-08-25T00:10:47;101808.06;;;23.26;100.00
69318;BME280;56457;52.190;4.440;2022-08-25T00:11:48;101806.47;;;23.22;100.00
69318;BME280;56457;52.190;4.440;2022-08-25T00:12:48;101805.56;;;23.23;100.00
69318;BME280;56457;52.190;4.440;2022-08-25T00:13:57;101801.06;;;23.24;100.00
69318;BME280;56457;52.190;4.440;2022-08-25T00:14:58;101803.75;;;23.24;100.00
69318;BME280;56457;52.190;4.440;2022-08-25T00:15:59;101798.41;;;23.24;100.00
69318;BME280;56457;52.190;4.440;2022-08-25T00:17:00;101803.66;;;23.25;100.00
69318;BME280;56457;52.190;4.440;2022-08-25T00:18:01;101798.50;;;23.21;100.00
69318;BME280;56457;52.190;4.440;2022-08-25T00:19:08;101797.56;;;23.22;100.00
69318;BME280;56457;52.190;4.440;2022-08-25T00:20:09;101795.84;;;23.21;100.00
69318;BME280;56457;52.190;4.440;2022-08-25T00:21:11;101796.88;;;23.18;100.00
69318;BME280;56457;52.190;4.440;2022-08-25T00:22:12;101793.16;;;23.21;100.00
69318;BME280;56457;52.190;4.440;2022-08-25T00:23:12;101794.19;;;23.18;100.00
69318;BME280;56457;52.190;4.440;2022-08-25T00:24:15;101793.16;;;23.21;100.00
69318;BME280;56457;52.190;4.440;2022-08-25T00:25:17;101794.19;;;23.18;100.00
69318;BME280;56457;52.190;4.440;2022-08-25T00:26:18;101799.47;;;23.20;100.00
69318;BME280;56457;52.190;4.440;2022-08-25T00:27:19;101791.56;;;23.17;100.00
69318;BME280;56457;52.190;4.440;2022-08-25T00:28:20;101788.00;;;23.16;100.00
69318;BME280;56457;52.190;4.440;2022-08-25T00:29:21;101797.66;;;23.20;100.00
69318;BME280;56457;52.190;4.440;2022-08-25T00:30:24;101796.00;;;23.18;100.00
69318;BME280;56457;52.190;4.440;2022-08-25T00:31:25;101799.53;;;23.18;100.00
69318;BME280;56457;52.190;4.440;2022-08-25T00:32:26;101788.25;;;23.12;100.00
69318;BME280;56457;52.190;4.440;2022-08-25T00:33:27;101792.84;;;23.08;100.00
69318;BME280;56457;52.190;4.440;2022-08-25T00:34:33;101788.38;;;23.08;100.00
69318;BME280;56457;52.190;4.440;2022-08-25T00:35:34;101790.25;;;23.06;100.00
69318;BME280;56457;52.190;4.440;2022-08-25T00:36:36;101791.31;;;23.02;100.00
69318;BME280;56457;52.190;4.440;2022-08-25T00:37:37;101783.28;;;23.02;100.00
69318;BME280;56457;52.190;4.440;2022-08-25T00:38:38;101787.66;;;23.05;100.00
69318;BME280;56457;52.190;4.440;2022-08-25T00:39:39;101790.25;;;23.06;100.00
69318;BME280;56457;52.190;4.440;2022-08-25T00:40:40;101785.88;;;23.04;100.00
69318;BME280;56457;52.190;4.440;2022-08-25T00:41:42;101784.81;;;23.08;100.00
69318;BME280;56457;52.190;4.440;2022-08-25T00:42:42;101780.06;;;23.15;100.00
69318;BME280;56457;52.190;4.440;2022-08-25T00:43:48;101780.72;;;23.20;100.00
69318;BME280;56457;52.190;4.440;2022-08-25T00:44:51;101781.78;;;23.16;100.00
69318;BME280;56457;52.190;4.440;2022-08-25T00:45:51;101773.91;;;23.13;100.00
69318;BME280;56457;52.190;4.440;2022-08-25T00:46:54;101781.16;;;23.10;100.00
69318;BME280;56457;52.190;4.440;2022-08-25T00:47:55;101782.03;;;23.11;100.00
69318;BME280;56457;52.190;4.440;2022-08-25T00:48:58;101778.25;;;23.15;100.00
69318;BME280;56457;52.190;4.440;2022-08-25T00:50:02;101776.44;;;23.16;100.00
69318;BME280;56457;52.190;4.440;2022-08-25T00:51:06;101780.84;;;23.17;100.00
69318;BME280;56457;52.190;4.440;2022-08-25T00:52:21;101779.69;;;23.22;100.00
69318;BME280;56457;52.190;4.440;2022-08-25T00:53:23;101784.41;;;23.17;100.00
69318;BME280;56457;52.190;4.440;2022-08-25T00:54:28;101778.25;;;23.15;100.00
69318;BME280;56457;52.190;4.440;2022-08-25T00:55:34;101772.19;;;23.12;100.00
69318;BME280;56457;52.190;4.440;2022-08-25T00:56:36;101779.34;;;23.11;100.00
69318;BME280;56457;52.190;4.440;2022-08-25T00:57:40;101779.34;;;23.11;100.00
69318;BME280;56457;52.190;4.440;2022-08-25T00:58:42;101779.28;;;23.13;100.00
69318;BME280;56457;52.190;4.440;2022-08-25T00:59:43;101776.66;;;23.11;100.00
69318;BME280;56457;52.190;4.440;2022-08-25T01:00:48;101776.66;;;23.11;100.00
69318;BME280;56457;52.190;4.440;2022-08-25T01:01:50;101772.03;;;23.15;100.00
69318;BME280;56457;52.190;4.440;2022-08-25T01:02:52;101768.41;;;23.16;100.00
69318;BME280;56457;52.190;4.440;2022-08-25T01:03:52;101768.47;;;23.14;100.00
69318;BME280;56457;52.190;4.440;2022-08-25T01:04:53;101766.69;;;23.15;100.00
69318;BME280;56457;52.190;4.440;2022-08-25T01:05:54;101772.19;;;23.12;100.00
69318;BME280;56457;52.190;4.440;2022-08-25T01:06:56;101767.53;;;23.15;100.00
69318;BME280;56457;52.190;4.440;2022-08-25T01:07:59;101765.09;;;23.10;100.00
69318;BME280;56457;52.190;4.440;2022-08-25T01:09:03;101766.84;;;23.12;100.00
69318;BME280;56457;52.190;4.440;2022-08-25T01:10:05;101755.88;;;23.16;100.00
69318;BME280;56457;52.190;4.440;2022-08-25T01:11:08;101766.69;;;23.15;100.00
69318;BME280;56457;52.190;4.440;2022-08-25T01:12:09;101761.31;;;23.15;100.00
69318;BME280;56457;52.190;4.440;2022-08-25T01:13:14;101765.22;;;23.07;100.00
69318;BME280;56457;52.190;4.440;2022-08-25T01:14:18;101765.38;;;23.04;100.00
69318;BME280;56457;52.190;4.440;2022-08-25T01:15:19;101762.69;;;23.04;100.00
69318;BME280;56457;52.190;4.440;2022-08-25T01:16:20;101771.72;;;23.02;100.00
69318;BME280;56457;52.190;4.440;2022-08-25T01:17:21;101758.41;;;23.00;100.00
69318;BME280;56457;52.190;4.440;2022-08-25T01:18:22;101761.75;;;23.05;100.00
69318;BME280;56457;52.190;4.440;2022-08-25T01:19:23;101761.28;;;22.96;100.00
69318;BME280;56457;52.190;4.440;2022-08-25T01:20:27;101756.97;;;22.93;100.00
69318;BME280;56457;52.190;4.440;2022-08-25T01:21:29;101752.53;;;22.92;100.00
69318;BME280;56457;52.190;4.440;2022-08-25T01:22:30;101755.22;;;22.92;100.00
69318;BME280;56457;52.190;4.440;2022-08-25T01:23:31;101757.00;;;22.92;100.00
69318;BME280;56457;52.190;4.440;2022-08-25T01:24:46;101750.75;;;22.93;100.00
69318;BME280;56457;52.190;4.440;2022-08-25T01:26:03;101757.41;;;22.82;100.00
69318;BME280;56457;52.190;4.440;2022-08-25T01:27:04;101746.88;;;22.78;100.00
69318;BME280;56457;52.190;4.440;2022-08-25T01:28:05;101750.22;;;22.83;100.00
69318;BME280;56457;52.190;4.440;2022-08-25T01:29:08;101751.88;;;22.87;100.00
69318;BME280;56457;52.190;4.440;2022-08-25T01:30:22;101755.47;;;22.86;100.00
69318;BME280;56457;52.190;4.440;2022-08-25T01:31:23;101747.91;;;22.75;100.00
69318;BME280;56457;52.190;4.440;2022-08-25T01:32:23;101750.38;;;22.80;100.00
69318;BME280;56457;52.190;4.440;2022-08-25T01:33:24;101747.72;;;22.80;100.00
69318;BME280;56457;52.190;4.440;2022-08-25T01:34:27;101744.22;;;22.78;100.00
69318;BME280;56457;52.190;4.440;2022-08-25T01:35:27;101751.44;;;22.76;100.00
69318;BME280;56457;52.190;4.440;2022-08-25T01:36:28;101751.19;;;22.82;100.00
69318;BME280;56457;52.190;4.440;2022-08-25T01:37:33;101754.66;;;22.84;100.00
69318;BME280;56457;52.190;4.440;2022-08-25T01:38:34;101742.47;;;22.77;100.00
69318;BME280;56457;52.190;4.440;2022-08-25T01:39:34;101749.72;;;22.75;100.00
69318;BME280;56457;52.190;4.440;2022-08-25T01:40:39;101750.22;;;22.83;100.00
69318;BME280;56457;52.190;4.440;2022-08-25T01:43:01;101747.56;;;22.83;100.00
69318;BME280;56457;52.190;4.440;2022-08-25T01:44:03;101747.63;;;22.81;100.00
69318;BME280;56457;52.190;4.440;2022-08-25T01:45:05;101740.66;;;22.77;100.00
69318;BME280;56457;52.190;4.440;2022-08-25T01:46:06;101743.34;;;22.77;100.00
69318;BME280;56457;52.190;4.440;2022-08-25T01:47:07;101741.25;;;22.84;100.00
69318;BME280;56457;52.190;4.440;2022-08-25T01:48:09;101741.25;;;22.84;100.00
69318;BME280;56457;52.190;4.440;2022-08-25T01:49:09;101743.00;;;22.87;100.00
69318;BME280;56457;52.190;4.440;2022-08-25T01:50:10;101745.59;;;22.88;100.00
69318;BME280;56457;52.190;4.440;2022-08-25T01:51:13;101743.00;;;22.85;100.00
69318;BME280;56457;52.190;4.440;2022-08-25T01:52:28;101736.53;;;22.91;100.00
69318;BME280;56457;52.190;4.440;2022-08-25T01:53:30;101740.03;;;22.93;100.00
69318;BME280;56457;52.190;4.440;2022-08-25T01:54:31;101735.81;;;22.87;100.00
69318;BME280;56457;52.190;4.440;2022-08-25T01:55:31;101736.84;;;22.83;100.00
69318;BME280;56457;52.190;4.440;2022-08-25T01:56:50;101734.97;;;22.85;100.00
69318;BME280;56457;52.190;4.440;2022-08-25T01:57:50;101738.66;;;22.82;100.00
69318;BME280;56457;52.190;4.440;2022-08-25T01:58:52;101738.59;;;22.84;100.00
69318;BME280;56457;52.190;4.440;2022-08-25T01:59:52;101742.75;;;22.91;100.00
69318;BME280;56457;52.190;4.440;2022-08-25T02:00:54;101735.81;;;22.87;100.00
69318;BME280;56457;52.190;4.440;2022-08-25T02:01:56;101731.50;;;22.83;100.00
69318;BME280;56457;52.190;4.440;2022-08-25T02:02:56;101729.69;;;22.83;100.00
69318;BME280;56457;52.190;4.440;2022-08-25T02:03:57;101733.16;;;22.85;100.00
69318;BME280;56457;52.190;4.440;2022-08-25T02:04:57;101737.56;;;22.88;100.00
69318;BME280;56457;52.190;4.440;2022-08-25T02:05:59;101734.59;;;22.94;100.00
69318;BME280;56457;52.190;4.440;2022-08-25T02:07:02;101735.56;;;22.93;100.00
69318;BME280;56457;52.190;4.440;2022-08-25T02:08:03;101735.56;;;22.93;100.00
69318;BME280;56457;52.190;4.440;2022-08-25T02:09:09;101734.69;;;22.93;100.00
69318;BME280;56457;52.190;4.440;2022-08-25T02:10:11;101732.78;;;22.95;100.00
69318;BME280;56457;52.190;4.440;2022-08-25T02:11:13;101736.25;;;22.97;100.00
69318;BME280;56457;52.190;4.440;2022-08-25T02:12:13;101732.06;;;22.91;100.00
69318;BME280;56457;52.190;4.440;2022-08-25T02:13:14;101728.66;;;22.88;100.00
69318;BME280;56457;52.190;4.440;2022-08-25T02:14:16;101725.91;;;22.89;100.00
69318;BME280;56457;52.190;4.440;2022-08-25T02:15:17;101716.00;;;22.91;100.00
69318;BME280;56457;52.190;4.440;2022-08-25T02:16:27;101729.25;;;22.94;100.00
69318;BME280;56457;52.190;4.440;2022-08-25T02:17:29;101728.84;;;22.83;100.00
69318;BME280;56457;52.190;4.440;2022-08-25T02:18:29;101733.16;;;22.87;100.00
69318;BME280;56457;52.190;4.440;2022-08-25T02:19:30;101724.19;;;22.88;100.00
69318;BME280;56457;52.190;4.440;2022-08-25T02:20:30;101726.09;;;22.84;100.00
69318;BME280;56457;52.190;4.440;2022-08-25T02:21:32;101720.22;;;22.76;100.00
69318;BME280;56457;52.190;4.440;2022-08-25T02:22:32;101723.91;;;22.74;100.00
69318;BME280;56457;52.190;4.440;2022-08-25T02:23:33;101723.91;;;22.74;100.00
69318;BME280;56457;52.190;4.440;2022-08-25T02:24:33;101724.78;;;22.74;100.00
69318;BME280;56457;52.190;4.440;2022-08-25T02:25:36;101728.13;;;22.79;100.00
69318;BME280;56457;52.190;4.440;2022-08-25T02:26:37;101718.69;;;22.71;100.00
69318;BME280;56457;52.190;4.440;2022-08-25T02:27:37;101723.09;;;22.72;100.00
69318;BME280;56457;52.190;4.440;2022-08-25T02:28:38;101723.75;;;22.77;100.00
69318;BME280;56457;52.190;4.440;2022-08-25T02:29:39;101726.22;;;22.81;100.00
69318;BME280;56457;52.190;4.440;2022-08-25T02:30:41;101717.41;;;22.79;100.00
69318;BME280;56457;52.190;4.440;2022-08-25T02:31:42;101727.28;;;22.77;100.00
69318;BME280;56457;52.190;4.440;2022-08-25T02:32:43;101725.50;;;22.78;100.00
69318;BME280;56457;52.190;4.440;2022-08-25T02:33:43;101721.88;;;22.79;100.00
69318;BME280;56457;52.190;4.440;2022-08-25T02:34:44;101721.81;;;22.80;100.00
69318;BME280;56457;52.190;4.440;2022-08-25T02:35:44;101727.22;;;22.79;100.00
69318;BME280;56457;52.190;4.440;2022-08-25T02:36:44;101723.91;;;22.74;100.00
69318;BME280;56457;52.190;4.440;2022-08-25T02:37:45;101719.53;;;22.71;100.00
69318;BME280;56457;52.190;4.440;2022-08-25T02:38:46;101723.03;;;22.73;100.00
69318;BME280;56457;52.190;4.440;2022-08-25T02:39:46;101713.31;;;22.71;100.00
69318;BME280;56457;52.190;4.440;2022-08-25T02:40:46;101719.53;;;22.71;100.00
69318;BME280;56457;52.190;4.440;2022-08-25T02:41:47;101713.13;;;22.75;100.00
69318;BME280;56457;52.190;4.440;2022-08-25T02:42:48;101717.47;;;22.78;100.00
69318;BME280;56457;52.190;4.440;2022-08-25T02:43:50;101710.97;;;22.83;100.00
69318;BME280;56457;52.190;4.440;2022-08-25T02:44:50;101714.59;;;22.82;100.00
69318;BME280;56457;52.190;4.440;2022-08-25T02:45:52;101725.22;;;22.84;100.00
69318;BME280;56457;52.190;4.440;2022-08-25T02:46:53;101718.91;;;22.87;100.00
69318;BME280;56457;52.190;4.440;2022-08-25T02:47:53;101713.56;;;22.85;100.00
69318;BME280;56457;52.190;4.440;2022-08-25T02:48:53;101713.81;;;22.80;100.00
69318;BME280;56457;52.190;4.440;2022-08-25T02:49:54;101709.44;;;22.78;100.00
69318;BME280;56457;52.190;4.440;2022-08-25T02:50:58;101713.22;;;22.74;100.00
69318;BME280;56457;52.190;4.440;2022-08-25T02:52:00;101704.38;;;22.72;100.00
69318;BME280;56457;52.190;4.440;2022-08-25T02:53:00;101707.97;;;22.71;100.00
69318;BME280;56457;52.190;4.440;2022-08-25T02:54:03;101707.97;;;22.71;100.00
69318;BME280;56457;52.190;4.440;2022-08-25T02:55:07;101707.72;;;22.77;100.00
69318;BME280;56457;52.190;4.440;2022-08-25T02:56:09;101704.97;;;22.78;100.00
69318;BME280;56457;52.190;4.440;2022-08-25T02:57:10;101703.03;;;22.82;100.00
69318;BME280;56457;52.190;4.440;2022-08-25T02:58:12;101703.09;;;22.80;100.00
69318;BME280;56457;52.190;4.440;2022-08-25T02:59:13;101695.34;;;22.74;100.00
69318;BME280;56457;52.190;4.440;2022-08-25T03:00:14;101696.41;;;22.70;100.00
69318;BME280;56457;52.190;4.440;2022-08-25T03:01:15;101699.38;;;22.64;100.00
69318;BME280;56457;52.190;4.440;2022-08-25T03:02:16;101702.19;;;22.61;100.00
69318;BME280;56457;52.190;4.440;2022-08-25T03:03:18;101704.91;;;22.60;100.00
69318;BME280;56457;52.190;4.440;2022-08-25T03:04:19;101697.75;;;22.60;100.00
69318;BME280;56457;52.190;4.440;2022-08-25T03:05:19;101694.75;;;22.68;100.00
69318;BME280;56457;52.190;4.440;2022-08-25T03:06:21;101694.59;;;22.71;100.00
69318;BME280;56457;52.190;4.440;2022-08-25T03:07:23;101694.53;;;22.72;100.00
69318;BME280;56457;52.190;4.440;2022-08-25T03:08:24;101699.00;;;22.72;100.00
69318;BME280;56457;52.190;4.440;2022-08-25T03:09:25;101690.31;;;22.67;100.00
69318;BME280;56457;52.190;4.440;2022-08-25T03:10:26;101696.63;;;22.66;100.00
69318;BME280;56457;52.190;4.440;2022-08-25T03:11:27;101687.66;;;22.67;100.00
69318;BME280;56457;52.190;4.440;2022-08-25T03:12:27;101689.44;;;22.66;100.00
69318;BME280;56457;52.190;4.440;2022-08-25T03:13:28;101696.78;;;22.63;100.00
69318;BME280;56457;52.190;4.440;2022-08-25T03:14:29;101687.00;;;22.62;100.00
69318;BME280;56457;52.190;4.440;2022-08-25T03:15:29;101690.47;;;22.64;100.00
69318;BME280;56457;52.190;4.440;2022-08-25T03:16:31;101679.78;;;22.64;100.00
69318;BME280;56457;52.190;4.440;2022-08-25T03:17:32;101695.66;;;22.67;100.00
69318;BME280;56457;52.190;4.440;2022-08-25T03:18:33;101686.84;;;22.65;100.00
69318;BME280;56457;52.190;4.440;2022-08-25T03:19:34;101684.34;;;22.62;100.00
69318;BME280;56457;52.190;4.440;2022-08-25T03:20:35;101684.34;;;22.62;100.00
69318;BME280;56457;52.190;4.440;2022-08-25T03:21:36;101683.41;;;22.63;100.00
69318;BME280;56457;52.190;4.440;2022-08-25T03:22:37;101684.97;;;22.67;100.00
69318;BME280;56457;52.190;4.440;2022-08-25T03:23:39;101686.75;;;22.68;100.00
69318;BME280;56457;52.190;4.440;2022-08-25T03:24:40;101684.69;;;22.73;100.00
69318;BME280;56457;52.190;4.440;2022-08-25T03:25:41;101674.00;;;22.73;100.00
69318;BME280;56457;52.190;4.440;2022-08-25T03:27:00;101676.81;;;22.70;100.00
69318;BME280;56457;52.190;4.440;2022-08-25T03:28:02;101671.56;;;22.68;100.00
69318;BME280;56457;52.190;4.440;2022-08-25T03:29:04;101672.41;;;22.69;100.00
69318;BME280;56457;52.190;4.440;2022-08-25T03:30:06;101670.81;;;22.65;100.00
69318;BME280;56457;52.190;4.440;2022-08-25T03:31:08;101671.09;;;22.58;100.00
69318;BME280;56457;52.190;4.440;2022-08-25T03:32:09;101663.50;;;22.49;100.00
69318;BME280;56457;52.190;4.440;2022-08-25T03:33:11;101663.34;;;22.52;100.00
69318;BME280;56457;52.190;4.440;2022-08-25T03:34:14;101663.34;;;22.52;100.00
69318;BME280;56457;52.190;4.440;2022-08-25T03:35:18;101661.44;;;22.54;100.00
69318;BME280;56457;52.190;4.440;2022-08-25T03:36:24;101651.69;;;22.53;100.00
69318;BME280;56457;52.190;4.440;2022-08-25T03:37:24;101646.91;;;22.41;100.00
69318;BME280;56457;52.190;4.440;2022-08-25T03:38:26;101651.47;;;22.39;100.00
69318;BME280;56457;52.190;4.440;2022-08-25T03:39:28;101654.91;;;22.41;100.00
69318;BME280;56457;52.190;4.440;2022-08-25T03:40:29;101656.97;;;22.36;100.00
69318;BME280;56457;52.190;4.440;2022-08-25T03:41:32;101656.13;;;22.34;100.00
69318;BME280;56457;52.190;4.440;2022-08-25T03:42:34;101646.09;;;22.39;100.00
69318;BME280;56457;52.190;4.440;2022-08-25T03:43:35;101644.66;;;22.32;100.00
69318;BME280;56457;52.190;4.440;2022-08-25T03:44:36;101649.81;;;22.37;100.00
69318;BME280;56457;52.190;4.440;2022-08-25T03:45:42;101649.72;;;22.38;100.00
69318;BME280;56457;52.190;4.440;2022-08-25T03:46:47;101646.19;;;22.38;100.00
69318;BME280;56457;52.190;4.440;2022-08-25T03:47:49;101638.25;;;22.36;100.00
69318;BME280;56457;52.190;4.440;2022-08-25T03:48:51;101639.03;;;22.38;100.00
69318;BME280;56457;52.190;4.440;2022-08-25T03:49:52;101632.63;;;22.42;100.00
69318;BME280;56457;52.190;4.440;2022-08-25T03:50:53;101638.75;;;22.44;100.00
69318;BME280;56457;52.190;4.440;2022-08-25T03:51:54;101641.22;;;22.49;100.00
69318;BME280;56457;52.190;4.440;2022-08-25T03:52:55;101632.34;;;22.48;100.00
69318;BME280;56457;52.190;4.440;2022-08-25T03:53:57;101633.94;;;22.52;100.00
69318;BME280;56457;52.190;4.440;2022-08-25T03:54:58;101628.38;;;22.57;100.00
69318;BME280;56457;52.190;4.440;2022-08-25T03:55:59;101625.91;;;22.52;100.00
69318;BME280;56457;52.190;4.440;2022-08-25T03:57:00;101622.16;;;22.56;100.00
69318;BME280;56457;52.190;4.440;2022-08-25T03:58:01;101624.03;;;22.54;100.00
69318;BME280;56457;52.190;4.440;2022-08-25T03:59:02;101614.50;;;22.49;100.00
69318;BME280;56457;52.190;4.440;2022-08-25T04:00:04;101625.16;;;22.30;100.00
69318;BME280;56457;52.190;4.440;2022-08-25T04:01:05;101617.84;;;22.34;100.00
69318;BME280;56457;52.190;4.440;2022-08-25T04:02:06;101623.00;;;22.38;100.00
69318;BME280;56457;52.190;4.440;2022-08-25T04:03:07;101619.38;;;22.39;100.00
69318;BME280;56457;52.190;4.440;2022-08-25T04:04:09;101622.78;;;22.43;100.00
69318;BME280;56457;52.190;4.440;2022-08-25T04:05:10;101605.81;;;22.44;100.00
69318;BME280;56457;52.190;4.440;2022-08-25T04:06:10;101620.91;;;22.45;100.00
69318;BME280;56457;52.190;4.440;2022-08-25T04:07:11;101611.16;;;22.44;100.00
69318;BME280;56457;52.190;4.440;2022-08-25T04:08:12;101622.13;;;22.38;99.68
69318;BME280;56457;52.190;4.440;2022-08-25T04:09:12;101625.59;;;22.40;99.92
69318;BME280;56457;52.190;4.440;2022-08-25T04:10:13;101611.94;;;22.46;99.69
69318;BME280;56457;52.190;4.440;2022-08-25T04:11:19;101609.34;;;22.44;99.32
69318;BME280;56457;52.190;4.440;2022-08-25T04:12:21;101621.94;;;22.42;99.04
69318;BME280;56457;52.190;4.440;2022-08-25T04:13:21;101614.19;;;22.36;99.29
69318;BME280;56457;52.190;4.440;2022-08-25T04:14:22;101622.47;;;22.30;99.33
69318;BME280;56457;52.190;4.440;2022-08-25T04:15:22;101610.69;;;22.34;99.65
69318;BME280;56457;52.190;4.440;2022-08-25T04:16:26;101611.28;;;22.41;99.14
69318;BME280;56457;52.190;4.440;2022-08-25T04:17:29;101615.41;;;22.48;99.26
69318;BME280;56457;52.190;4.440;2022-08-25T04:18:29;101610.28;;;22.43;98.63
69318;BME280;56457;52.190;4.440;2022-08-25T04:19:30;101608.00;;;22.34;98.47
69318;BME280;56457;52.190;4.440;2022-08-25T04:20:30;101614.38;;;22.32;98.64
69318;BME280;56457;52.190;4.440;2022-08-25T04:21:31;101606.75;;;22.43;98.95
69318;BME280;56457;52.190;4.440;2022-08-25T04:22:31;101603.84;;;22.47;97.86
69318;BME280;56457;52.190;4.440;2022-08-25T04:23:32;101613.09;;;22.40;97.86
69318;BME280;56457;52.190;4.440;2022-08-25T04:24:32;101594.44;;;22.39;97.74
69318;BME280;56457;52.190;4.440;2022-08-25T04:25:33;101607.22;;;22.32;97.47
69318;BME280;56457;52.190;4.440;2022-08-25T04:26:39;101606.28;;;22.33;97.75
69318;BME280;56457;52.190;4.440;2022-08-25T04:27:42;101607.22;;;22.32;97.81
69318;BME280;56457;52.190;4.440;2022-08-25T04:28:42;101609.09;;;22.30;97.62
69318;BME280;56457;52.190;4.440;2022-08-25T04:29:43;101605.50;;;22.31;97.61
69318;BME280;56457;52.190;4.440;2022-08-25T04:30:43;101604.16;;;22.21;98.00
69318;BME280;56457;52.190;4.440;2022-08-25T04:31:45;101607.84;;;22.18;97.86
69318;BME280;56457;52.190;4.440;2022-08-25T04:32:48;101601.28;;;22.25;97.51
69318;BME280;56457;52.190;4.440;2022-08-25T04:33:48;101603.63;;;22.33;97.87
69318;BME280;56457;52.190;4.440;2022-08-25T04:34:49;101598.78;;;22.41;97.68
69318;BME280;56457;52.190;4.440;2022-08-25T04:35:49;101602.66;;;22.34;96.63
69318;BME280;56457;52.190;4.440;2022-08-25T04:36:50;101612.31;;;22.38;96.69
69318;BME280;56457;52.190;4.440;2022-08-25T04:37:50;101604.28;;;22.38;96.40
69318;BME280;56457;52.190;4.440;2022-08-25T04:38:51;101608.69;;;22.39;96.19
69318;BME280;56457;52.190;4.440;2022-08-25T04:39:51;101603.75;;;22.30;96.10
69318;BME280;56457;52.190;4.440;2022-08-25T04:40:59;101614.56;;;22.27;96.09
69318;BME280;56457;52.190;4.440;2022-08-25T04:42:00;101608.22;;;22.29;96.84
69318;BME280;56457;52.190;4.440;2022-08-25T04:43:01;101612.41;;;22.35;95.82
69318;BME280;56457;52.190;4.440;2022-08-25T04:44:02;101622.19;;;22.36;96.21
69318;BME280;56457;52.190;4.440;2022-08-25T04:45:03;101616.59;;;22.42;95.88
69318;BME280;56457;52.190;4.440;2022-08-25T04:46:10;101610.28;;;22.43;95.37
69318;BME280;56457;52.190;4.440;2022-08-25T04:47:11;101618.44;;;22.40;95.57
69318;BME280;56457;52.190;4.440;2022-08-25T04:48:11;101621.31;;;22.36;95.91
69318;BME280;56457;52.190;4.440;2022-08-25T04:49:12;101615.91;;;22.37;95.52
69318;BME280;56457;52.190;4.440;2022-08-25T04:50:12;101613.00;;;22.42;95.47
69318;BME280;56457;52.190;4.440;2022-08-25T04:51:16;101614.69;;;22.44;94.81
69318;BME280;56457;52.190;4.440;2022-08-25T04:52:16;101621.94;;;22.42;94.53
69318;BME280;56457;52.190;4.440;2022-08-25T04:53:17;101615.75;;;22.40;94.69
69318;BME280;56457;52.190;4.440;2022-08-25T04:54:18;101613.91;;;22.42;94.96
69318;BME280;56457;52.190;4.440;2022-08-25T04:55:21;101612.97;;;22.43;94.85
69318;BME280;56457;52.190;4.440;2022-08-25T04:56:23;101605.94;;;22.41;94.53
69318;BME280;56457;52.190;4.440;2022-08-25T04:57:24;101607.53;;;22.45;94.14
69318;BME280;56457;52.190;4.440;2022-08-25T04:58:25;101604.78;;;22.46;94.51
69318;BME280;56457;52.190;4.440;2022-08-25T04:59:27;101610.88;;;22.50;94.72
69318;BME280;56457;52.190;4.440;2022-08-25T05:00:27;101606.59;;;22.46;93.57
69318;BME280;56457;52.190;4.440;2022-08-25T05:01:28;101612.97;;;22.43;94.01
69318;BME280;56457;52.190;4.440;2022-08-25T05:02:28;101610.13;;;22.46;94.15
69318;BME280;56457;52.190;4.440;2022-08-25T05:03:29;101610.28;;;22.43;93.56
69318;BME280;56457;52.190;4.440;2022-08-25T05:04:30;101612.16;;;22.41;93.03
69318;BME280;56457;52.190;4.440;2022-08-25T05:05:35;101607.81;;;22.39;93.33
69318;BME280;56457;52.190;4.440;2022-08-25T05:06:36;101613.25;;;22.37;93.28
69318;BME280;56457;52.190;4.440;2022-08-25T05:07:36;101618.44;;;22.40;93.23
69318;BME280;56457;52.190;4.440;2022-08-25T05:08:37;101611.28;;;22.41;93.36
69318;BME280;56457;52.190;4.440;2022-08-25T05:09:37;101616.59;;;22.42;93.20
69318;BME280;56457;52.190;4.440;2022-08-25T05:10:39;101619.25;;;22.42;92.99
69318;BME280;56457;52.190;4.440;2022-08-25T05:11:39;101618.44;;;22.40;93.20
69318;BME280;56457;52.190;4.440;2022-08-25T05:12:40;101613.84;;;22.44;93.22
69318;BME280;56457;52.190;4.440;2022-08-25T05:13:41;101614.78;;;22.43;92.83
69318;BME280;56457;52.190;4.440;2022-08-25T05:14:41;101623.50;;;22.46;92.68
69318;BME280;56457;52.190;4.440;2022-08-25T05:15:42;101615.56;;;22.45;92.57
69318;BME280;56457;52.190;4.440;2022-08-25T05:16:51;101623.00;;;22.38;92.25
69318;BME280;56457;52.190;4.440;2022-08-25T05:17:52;101632.91;;;22.36;92.43
69318;BME280;56457;52.190;4.440;2022-08-25T05:18:53;101623.00;;;22.38;92.38
69318;BME280;56457;52.190;4.440;2022-08-25T05:19:53;101622.78;;;22.43;92.20
69318;BME280;56457;52.190;4.440;2022-08-25T05:20:55;101623.50;;;22.46;92.32
69318;BME280;56457;52.190;4.440;2022-08-25T05:21:56;101618.91;;;22.50;92.52